Time;durP1;ratioP1;P1;durP2;ratioP2;P2;SDS_P1;SDS_P2;PMS_P1;PMS_P2;Temp;Humidity;BMP_temperature;BMP_pressure;BME280_temperature;BME280_humidity;BME280_pressure;Samples;Min_cycle;Max_cycle;Signal;HPM_P1;HPM_P2
2023/05/30 00:04:32;;;;;;;13.75;5.88;;;;;;;;;;10604128;27;20027;-80
2023/05/30 00:09:33;;;;;;;10.15;5.05;;;;;;;;;;10598685;27;20098;-78
2023/05/30 00:14:36;;;;;;;8.80;5.55;;;;;;;;;;10610623;27;20050;-80
2023/05/30 00:19:37;;;;;;;11.50;4.80;;;;;;;;;;10612619;27;20037;-81
2023/05/30 00:24:38;;;;;;;11.07;5.68;;;;;;;;;;10604390;27;20478;-80
2023/05/30 00:29:39;;;;;;;8.02;5.15;;;;;;;;;;10612282;27;20031;-80
2023/05/30 00:34:40;;;;;;;7.90;5.38;;;;;;;;;;10610177;27;20055;-79
2023/05/30 00:39:41;;;;;;;11.02;5.82;;;;;;;;;;10600768;27;20043;-79
2023/05/30 00:44:42;;;;;;;11.38;5.90;;;;;;;;;;10622712;27;20046;-78
2023/05/30 00:49:43;;;;;;;10.57;4.82;;;;;;;;;;10614714;27;20027;-78
2023/05/30 00:54:46;;;;;;;10.35;5.90;;;;;;;;;;10607314;27;20074;-80
2023/05/30 00:59:48;;;;;;;10.70;6.22;;;;;;;;;;10608640;27;20031;-81
2023/05/30 01:04:49;;;;;;;10.75;6.00;;;;;;;;;;10608355;27;20015;-80
2023/05/30 01:09:52;;;;;;;12.65;6.03;;;;;;;;;;10610814;27;20023;-79
2023/05/30 01:14:58;;;;;;;12.55;6.05;;;;;;;;;;10611486;27;20047;-81
2023/05/30 01:20:09;;;;;;;12.45;6.10;;;;;;;;;;10591436;27;20066;-79
2023/05/30 01:25:18;;;;;;;10.27;5.95;;;;;;;;;;10594241;27;20035;-81
2023/05/30 01:30:21;;;;;;;12.18;6.70;;;;;;;;;;10594950;28;20581;-81
2023/05/30 01:35:25;;;;;;;11.05;5.78;;;;;;;;;;10597238;27;20038;-80
2023/05/30 01:40:27;;;;;;;12.10;6.28;;;;;;;;;;10610035;27;20035;-79
2023/05/30 01:45:42;;;;;;;9.43;6.28;;;;;;;;;;10570594;28;20027;-80
2023/05/30 01:50:48;;;;;;;8.57;5.20;;;;;;;;;;10593053;27;20037;-80
2023/05/30 01:55:49;;;;;;;;;;;;;;;;;;10615274;27;20047;-79
2023/05/30 02:00:51;;;;;;;10.48;5.60;;;;;;;;;;10605948;27;19912;-81
2023/05/30 02:05:52;;;;;;;11.63;6.55;;;;;;;;;;10611243;27;20382;-79
2023/05/30 02:10:53;;;;;;;9.60;5.47;;;;;;;;;;10611670;27;20023;-80
2023/05/30 02:15:54;;;;;;;12.30;6.43;;;;;;;;;;10620350;27;20122;-79
2023/05/30 02:20:55;;;;;;;14.02;6.00;;;;;;;;;;10617961;27;20027;-77
2023/05/30 02:25:56;;;;;;;13.73;6.35;;;;;;;;;;10617769;27;20042;-80
2023/05/30 02:30:57;;;;;;;14.98;6.32;;;;;;;;;;10607632;27;20103;-80
2023/05/30 02:35:58;;;;;;;14.93;6.35;;;;;;;;;;10626039;27;20451;-80
2023/05/30 02:40:59;;;;;;;14.20;6.43;;;;;;;;;;10620007;27;20054;-78
2023/05/30 02:46:01;;;;;;;12.57;6.35;;;;;;;;;;10619040;27;20525;-80
2023/05/30 02:51:02;;;;;;;12.60;6.47;;;;;;;;;;10619337;27;20552;-80
2023/05/30 02:56:03;;;;;;;11.32;6.10;;;;;;;;;;10619860;27;20047;-78
2023/05/30 03:01:05;;;;;;;11.05;6.57;;;;;;;;;;10610997;27;20031;-78
2023/05/30 03:06:06;;;;;;;14.77;6.63;;;;;;;;;;10602121;27;20035;-79
2023/05/30 03:11:07;;;;;;;13.43;6.50;;;;;;;;;;10626517;27;20393;-80
2023/05/30 03:16:08;;;;;;;11.38;5.85;;;;;;;;;;10617329;27;20049;-79
2023/05/30 03:21:10;;;;;;;18.05;6.20;;;;;;;;;;10637679;27;20504;-79
2023/05/30 03:26:11;;;;;;;11.63;6.43;;;;;;;;;;10622310;27;20031;-78
2023/05/30 03:31:12;;;;;;;13.95;6.88;;;;;;;;;;10619444;27;20749;-80
2023/05/30 03:36:13;;;;;;;10.75;6.65;;;;;;;;;;10617611;27;20079;-80
2023/05/30 03:41:14;;;;;;;13.00;6.82;;;;;;;;;;10648279;27;20423;-80
2023/05/30 03:46:16;;;;;;;15.27;7.68;;;;;;;;;;10644655;27;20034;-80
2023/05/30 03:51:17;;;;;;;12.82;6.97;;;;;;;;;;10657879;27;20049;-81
2023/05/30 03:56:18;;;;;;;14.50;7.40;;;;;;;;;;10629460;27;20118;-78
2023/05/30 04:01:19;;;;;;;13.25;7.32;;;;;;;;;;10616588;27;20031;-79
2023/05/30 04:06:20;;;;;;;13.68;7.20;;;;;;;;;;10658835;27;20030;-77
2023/05/30 04:11:21;;;;;;;12.98;7.22;;;;;;;;;;10630346;27;20037;-77
2023/05/30 04:16:22;;;;;;;16.05;7.00;;;;;;;;;;10615572;27;20035;-80
2023/05/30 04:21:25;;;;;;;17.08;7.50;;;;;;;;;;10590177;27;20491;-80
2023/05/30 04:26:26;;;;;;;20.70;8.60;;;;;;;;;;10627395;27;20114;-78
2023/05/30 04:31:28;;;;;;;17.80;7.68;;;;;;;;;;10613670;27;20043;-78
2023/05/30 04:36:32;;;;;;;21.08;8.43;;;;;;;;;;10608612;27;20035;-79
2023/05/30 04:41:33;;;;;;;12.40;6.97;;;;;;;;;;10613099;27;20099;-78
2023/05/30 04:46:35;;;;;;;13.75;7.22;;;;;;;;;;10613949;27;20220;-78
2023/05/30 04:51:37;;;;;;;16.05;7.38;;;;;;;;;;10613687;27;20042;-78
2023/05/30 04:56:39;;;;;;;13.77;7.50;;;;;;;;;;10613231;27;20035;-79
2023/05/30 05:01:41;;;;;;;23.38;7.78;;;;;;;;;;10613370;27;20019;-77
2023/05/30 05:06:42;;;;;;;16.75;8.18;;;;;;;;;;10612903;27;20027;-78
2023/05/30 05:11:43;;;;;;;18.10;6.50;;;;;;;;;;10613395;27;20378;-79
2023/05/30 05:16:44;;;;;;;16.58;7.10;;;;;;;;;;10612861;27;20483;-79
2023/05/30 05:21:45;;;;;;;11.68;6.68;;;;;;;;;;10613645;27;20485;-78
2023/05/30 05:26:46;;;;;;;14.85;7.15;;;;;;;;;;10601631;27;20038;-78
2023/05/30 05:31:47;;;;;;;12.43;6.85;;;;;;;;;;10608728;27;20483;-78
2023/05/30 05:36:48;;;;;;;13.80;6.80;;;;;;;;;;10613073;28;20085;-79
2023/05/30 05:41:49;;;;;;;14.82;7.40;;;;;;;;;;10612503;28;20531;-78
2023/05/30 05:46:50;;;;;;;16.58;7.18;;;;;;;;;;10613282;28;20031;-79
2023/05/30 05:51:52;;;;;;;20.33;6.72;;;;;;;;;;10611902;28;20042;-80
2023/05/30 05:56:53;;;;;;;14.32;6.72;;;;;;;;;;10611779;28;20114;-78
2023/05/30 06:01:54;;;;;;;14.63;6.55;;;;;;;;;;10612405;28;20023;-78
2023/05/30 06:06:55;;;;;;;12.20;6.65;;;;;;;;;;10613245;27;20039;-80
2023/05/30 06:11:56;;;;;;;10.55;6.13;;;;;;;;;;10619585;27;20111;-79
2023/05/30 06:16:57;;;;;;;14.93;6.38;;;;;;;;;;10619707;27;20034;-79
2023/05/30 06:21:58;;;;;;;9.70;6.05;;;;;;;;;;10619261;27;20451;-79
2023/05/30 06:26:59;;;;;;;12.50;6.05;;;;;;;;;;10620381;27;20031;-77
2023/05/30 06:32:00;;;;;;;12.90;6.10;;;;;;;;;;10618907;27;20043;-77
2023/05/30 06:37:01;;;;;;;11.52;5.25;;;;;;;;;;10618464;27;20549;-79
2023/05/30 06:42:02;;;;;;;9.15;5.00;;;;;;;;;;10618855;27;20027;-79
2023/05/30 06:47:03;;;;;;;11.20;5.30;;;;;;;;;;10618336;27;20018;-79
2023/05/30 06:52:04;;;;;;;11.57;5.90;;;;;;;;;;10604616;27;20755;-76
2023/05/30 06:57:06;;;;;;;11.10;5.32;;;;;;;;;;10617969;27;20027;-78
2023/05/30 07:02:07;;;;;;;11.85;6.03;;;;;;;;;;10617892;27;20027;-78
2023/05/30 07:07:08;;;;;;;10.07;4.47;;;;;;;;;;10574557;27;20733;-79
2023/05/30 07:12:09;;;;;;;8.13;4.50;;;;;;;;;;10617070;27;20035;-77
2023/05/30 07:17:10;;;;;;;10.52;4.60;;;;;;;;;;10617725;27;20039;-78
2023/05/30 07:22:11;;;;;;;9.45;4.57;;;;;;;;;;10616932;27;20643;-78
2023/05/30 07:27:12;;;;;;;10.43;4.95;;;;;;;;;;10616788;27;20028;-77
2023/05/30 07:32:13;;;;;;;12.02;5.47;;;;;;;;;;10616809;27;20410;-80
2023/05/30 07:37:14;;;;;;;10.05;4.90;;;;;;;;;;10617077;27;20056;-78
2023/05/30 07:42:16;;;;;;;10.27;5.18;;;;;;;;;;10616671;27;20027;-80
2023/05/30 07:47:17;;;;;;;8.52;4.60;;;;;;;;;;10616495;27;20027;-80
2023/05/30 07:52:18;;;;;;;12.65;5.47;;;;;;;;;;10615922;27;20063;-78
2023/05/30 07:57:19;;;;;;;8.45;5.28;;;;;;;;;;10615802;27;20027;-80
2023/05/30 08:02:24;;;;;;;11.90;4.88;;;;;;;;;;10615530;27;20031;-77
2023/05/30 08:07:25;;;;;;;8.07;4.00;;;;;;;;;;10572634;27;20398;-77
2023/05/30 08:12:29;;;;;;;8.27;4.63;;;;;;;;;;10614839;27;20042;-77
2023/05/30 08:17:30;;;;;;;10.27;4.78;;;;;;;;;;10614704;27;20371;-79
2023/05/30 08:22:31;;;;;;;7.68;4.20;;;;;;;;;;10614754;27;20023;-78
2023/05/30 08:27:34;;;;;;;9.30;5.25;;;;;;;;;;10614775;27;20027;-79
2023/05/30 08:32:35;;;;;;;7.93;4.53;;;;;;;;;;10614017;27;20068;-77
2023/05/30 08:37:36;;;;;;;8.85;4.38;;;;;;;;;;10613894;27;20123;-79
2023/05/30 08:42:37;;;;;;;6.30;4.13;;;;;;;;;;10613974;27;20019;-79
2023/05/30 08:47:39;;;;;;;9.07;4.60;;;;;;;;;;10613868;27;20094;-78
2023/05/30 08:52:41;;;;;;;6.22;3.33;;;;;;;;;;10614466;27;20095;-79
2023/05/30 08:57:51;;;;;;;9.07;4.05;;;;;;;;;;10613421;27;20436;-78
2023/05/30 09:02:57;;;;;;;6.38;3.33;;;;;;;;;;10613425;27;20031;-78
2023/05/30 09:07:59;;;;;;;7.28;3.30;;;;;;;;;;10613072;27;20031;-77
2023/05/30 09:13:00;;;;;;;6.93;3.63;;;;;;;;;;10609951;27;20127;-78
2023/05/30 09:18:02;;;;;;;7.75;3.95;;;;;;;;;;10612347;27;20028;-79
2023/05/30 09:23:03;;;;;;;8.50;3.25;;;;;;;;;;10612226;27;20028;-78
2023/05/30 09:28:04;;;;;;;9.90;4.22;;;;;;;;;;10613034;27;20477;-78
2023/05/30 09:33:06;;;;;;;6.72;3.03;;;;;;;;;;10613270;28;20150;-78
2023/05/30 09:38:07;;;;;;;8.82;3.17;;;;;;;;;;10612853;28;20027;-79
2023/05/30 09:43:08;;;;;;;8.50;3.97;;;;;;;;;;10615301;27;20030;-77
2023/05/30 09:48:17;;;;;;;8.27;3.53;;;;;;;;;;10621098;27;20386;-79
2023/05/30 09:53:18;;;;;;;5.15;3.33;;;;;;;;;;10602987;27;20043;-77
2023/05/30 09:58:20;;;;;;;4.13;2.95;;;;;;;;;;10620654;27;20383;-80
2023/05/30 10:03:22;;;;;;;6.65;3.58;;;;;;;;;;10620692;27;20127;-77
2023/05/30 10:08:23;;;;;;;7.70;3.65;;;;;;;;;;10607697;27;20477;-78
2023/05/30 10:13:24;;;;;;;6.00;3.50;;;;;;;;;;10601194;27;20088;-79
2023/05/30 10:18:25;;;;;;;7.65;3.72;;;;;;;;;;10620040;27;20110;-79
2023/05/30 10:23:27;;;;;;;5.32;3.03;;;;;;;;;;10620073;27;20023;-80
2023/05/30 10:28:28;;;;;;;10.00;3.90;;;;;;;;;;10620179;27;20034;-79
2023/05/30 10:33:32;;;;;;;8.18;3.88;;;;;;;;;;10619464;27;20047;-77
2023/05/30 10:38:38;;;;;;;7.88;3.28;;;;;;;;;;10618701;27;20469;-78
2023/05/30 10:43:50;;;;;;;6.63;3.90;;;;;;;;;;10619373;27;20027;-78
2023/05/30 10:48:53;;;;;;;10.63;3.60;;;;;;;;;;10619399;27;20043;-79
2023/05/30 10:53:55;;;;;;;8.77;4.15;;;;;;;;;;10617910;27;20083;-78
2023/05/30 10:58:56;;;;;;;8.43;3.80;;;;;;;;;;10618228;27;20535;-79
2023/05/30 11:04:13;;;;;;;10.70;4.47;;;;;;;;;;10618153;27;20031;-77
2023/05/30 11:09:15;;;;;;;6.40;4.10;;;;;;;;;;10618189;27;20501;-79
2023/05/30 11:14:16;;;;;;;6.82;4.20;;;;;;;;;;10617480;27;20033;-77
2023/05/30 11:19:19;;;;;;;6.63;4.05;;;;;;;;;;10617814;27;20030;-79
2023/05/30 11:24:20;;;;;;;7.85;3.72;;;;;;;;;;10617548;27;20446;-80
2023/05/30 11:29:37;;;;;;;6.18;3.75;;;;;;;;;;10616940;27;20076;-79
2023/05/30 11:34:38;;;;;;;9.52;4.15;;;;;;;;;;10617561;27;20130;-78
2023/05/30 11:39:39;;;;;;;6.95;4.22;;;;;;;;;;10618512;27;20022;-77
2023/05/30 11:44:42;;;;;;;6.68;3.97;;;;;;;;;;10616971;27;20031;-78
2023/05/30 11:49:45;;;;;;;10.82;4.65;;;;;;;;;;10616329;27;20483;-77
2023/05/30 11:54:46;;;;;;;8.40;4.20;;;;;;;;;;10616403;27;20473;-78
2023/05/30 11:59:50;;;;;;;7.57;4.10;;;;;;;;;;10614757;27;20037;-79
2023/05/30 12:04:59;;;;;;;5.93;4.22;;;;;;;;;;10614596;27;20034;-79
2023/05/30 12:10:00;;;;;;;7.57;4.05;;;;;;;;;;10597295;27;20026;-79
2023/05/30 12:15:02;;;;;;;9.32;4.20;;;;;;;;;;10614302;27;20194;-78
2023/05/30 12:20:09;;;;;;;6.10;3.10;;;;;;;;;;10612989;27;20022;-78
2023/05/30 12:25:12;;;;;;;7.20;3.70;;;;;;;;;;10615172;27;20712;-78
2023/05/30 12:30:17;;;;;;;6.38;3.65;;;;;;;;;;10614866;27;20394;-77
2023/05/30 12:35:18;;;;;;;;;;;;;;;;;;10615679;27;20027;-79
2023/05/30 12:40:25;;;;;;;5.93;3.30;;;;;;;;;;10614710;27;19907;-77
2023/05/30 12:45:26;;;;;;;7.68;3.25;;;;;;;;;;10614102;27;20023;-78
2023/05/30 12:50:27;;;;;;;6.70;3.35;;;;;;;;;;10600761;27;20057;-79
2023/05/30 12:55:28;;;;;;;6.78;3.15;;;;;;;;;;10613503;27;20027;-79
2023/05/30 13:00:29;;;;;;;7.88;3.60;;;;;;;;;;10613644;27;20038;-76
2023/05/30 13:05:30;;;;;;;5.78;3.53;;;;;;;;;;10614068;27;20770;-79
2023/05/30 13:10:32;;;;;;;6.03;3.67;;;;;;;;;;10613461;27;20026;-79
2023/05/30 13:15:33;;;;;;;7.63;3.25;;;;;;;;;;10613309;27;20070;-78
2023/05/30 13:20:35;;;;;;;11.05;3.70;;;;;;;;;;10613171;27;20059;-78
2023/05/30 13:25:35;;;;;;;6.07;3.50;;;;;;;;;;10613443;27;20031;-78
2023/05/30 13:30:36;;;;;;;5.85;3.33;;;;;;;;;;10613085;27;20059;-78
2023/05/30 13:35:37;;;;;;;6.30;3.40;;;;;;;;;;10612932;28;20038;-78
2023/05/30 13:40:38;;;;;;;6.55;3.05;;;;;;;;;;10612591;28;20550;-79
2023/05/30 13:45:42;;;;;;;6.97;3.25;;;;;;;;;;10613231;28;20443;-79
2023/05/30 13:50:44;;;;;;;5.80;3.50;;;;;;;;;;10612878;28;20386;-77
2023/05/30 13:55:45;;;;;;;7.07;3.13;;;;;;;;;;10612349;28;20126;-78
2023/05/30 14:00:47;;;;;;;5.93;3.17;;;;;;;;;;10612325;28;20027;-78
2023/05/30 14:05:49;;;;;;;5.88;3.55;;;;;;;;;;10598447;28;20042;-78
2023/05/30 14:10:50;;;;;;;4.75;2.95;;;;;;;;;;10612084;28;20032;-78
2023/05/30 14:15:52;;;;;;;4.57;2.60;;;;;;;;;;10612438;28;20039;-78
2023/05/30 14:20:53;;;;;;;5.35;2.95;;;;;;;;;;10611712;28;20028;-79
2023/05/30 14:25:54;;;;;;;5.07;3.05;;;;;;;;;;10611848;28;20031;-78
2023/05/30 14:30:55;;;;;;;8.63;3.40;;;;;;;;;;10616951;27;20455;-80
2023/05/30 14:35:56;;;;;;;9.30;3.03;;;;;;;;;;10600738;27;20042;-77
2023/05/30 14:40:57;;;;;;;6.72;2.80;;;;;;;;;;10619776;27;20042;-79
2023/05/30 14:45:58;;;;;;;8.05;2.95;;;;;;;;;;10619258;27;20083;-79
2023/05/30 14:50:59;;;;;;;8.88;3.00;;;;;;;;;;10621618;27;20122;-77
2023/05/30 14:56:02;;;;;;;6.53;3.22;;;;;;;;;;10630105;27;20039;-81
2023/05/30 15:01:03;;;;;;;5.75;3.10;;;;;;;;;;10621514;27;20029;-79
2023/05/30 15:06:05;;;;;;;9.77;3.47;;;;;;;;;;10618667;27;20529;-79
2023/05/30 15:11:06;;;;;;;6.60;2.90;;;;;;;;;;10617673;27;20027;-78
2023/05/30 15:16:07;;;;;;;5.72;2.70;;;;;;;;;;10617837;27;20495;-77
2023/05/30 15:21:08;;;;;;;5.43;2.75;;;;;;;;;;10604366;27;20023;-80
2023/05/30 15:26:10;;;;;;;5.40;3.00;;;;;;;;;;10617233;27;20023;-79
2023/05/30 15:31:11;;;;;;;5.85;3.05;;;;;;;;;;10618406;27;20079;-80
2023/05/30 15:36:12;;;;;;;7.22;2.90;;;;;;;;;;10622204;27;20401;-79
2023/05/30 15:41:13;;;;;;;11.88;2.97;;;;;;;;;;10596694;27;20031;-79
2023/05/30 15:46:17;;;;;;;4.60;2.22;;;;;;;;;;10624975;27;20050;-79
2023/05/30 15:51:18;;;;;;;6.55;2.75;;;;;;;;;;10623951;27;20037;-78
2023/05/30 15:56:21;;;;;;;7.95;2.83;;;;;;;;;;10626162;27;20050;-77
2023/05/30 16:01:22;;;;;;;8.35;2.70;;;;;;;;;;10624651;27;20118;-79
2023/05/30 16:06:23;;;;;;;7.45;2.50;;;;;;;;;;10628424;27;20039;-76
2023/05/30 16:11:25;;;;;;;8.30;2.65;;;;;;;;;;10615408;27;20027;-77
2023/05/30 16:16:26;;;;;;;6.47;2.28;;;;;;;;;;10616326;27;20066;-77
2023/05/30 16:21:28;;;;;;;6.10;2.45;;;;;;;;;;10628489;27;20060;-78
2023/05/30 16:26:29;;;;;;;7.80;2.47;;;;;;;;;;10579068;27;20469;-79
2023/05/30 16:31:30;;;;;;;8.20;2.72;;;;;;;;;;10629030;27;20058;-79
2023/05/30 16:36:32;;;;;;;9.90;2.83;;;;;;;;;;10618793;27;20063;-76
2023/05/30 16:41:33;;;;;;;5.47;2.58;;;;;;;;;;10616499;27;20532;-79
2023/05/30 16:46:34;;;;;;;4.63;2.20;;;;;;;;;;10618063;27;20023;-79
2023/05/30 16:51:37;;;;;;;8.43;3.30;;;;;;;;;;10614312;27;20046;-79
2023/05/30 16:56:38;;;;;;;5.43;2.40;;;;;;;;;;10624945;27;20664;-77
2023/05/30 17:01:39;;;;;;;9.40;2.63;;;;;;;;;;10623307;27;20019;-78
2023/05/30 17:06:40;;;;;;;6.85;2.45;;;;;;;;;;10620514;27;20135;-79
2023/05/30 17:11:41;;;;;;;6.38;2.85;;;;;;;;;;10613409;27;20545;-78
2023/05/30 17:16:42;;;;;;;8.60;2.67;;;;;;;;;;10617410;27;20035;-77
2023/05/30 17:21:43;;;;;;;6.93;2.45;;;;;;;;;;10622086;27;20114;-78
2023/05/30 17:26:44;;;;;;;7.15;3.65;;;;;;;;;;10613043;27;20075;-78
2023/05/30 17:31:45;;;;;;;8.63;3.13;;;;;;;;;;10607289;27;20138;-77
2023/05/30 17:36:46;;;;;;;8.45;2.45;;;;;;;;;;10605171;27;20053;-76
2023/05/30 17:41:48;;;;;;;8.63;2.60;;;;;;;;;;10612094;27;20068;-77
2023/05/30 17:46:49;;;;;;;5.35;2.53;;;;;;;;;;10626634;27;20474;-77
2023/05/30 17:51:49;;;;;;;7.85;3.00;;;;;;;;;;10625010;27;20164;-77
2023/05/30 17:56:51;;;;;;;6.97;2.67;;;;;;;;;;10618681;27;20039;-77
2023/05/30 18:01:52;;;;;;;8.98;2.92;;;;;;;;;;10536860;27;20027;-81
2023/05/30 18:06:53;;;;;;;8.35;2.90;;;;;;;;;;10619735;27;20063;-77
2023/05/30 18:11:54;;;;;;;6.43;2.92;;;;;;;;;;10599302;27;20752;-77
2023/05/30 18:16:55;;;;;;;5.63;2.70;;;;;;;;;;10619678;27;20054;-76
2023/05/30 18:21:56;;;;;;;6.13;3.38;;;;;;;;;;10620887;27;20031;-79
2023/05/30 18:26:57;;;;;;;7.03;3.63;;;;;;;;;;10601458;27;20038;-79
2023/05/30 18:31:58;;;;;;;8.32;3.45;;;;;;;;;;10623923;27;20394;-78
2023/05/30 18:36:59;;;;;;;7.95;2.88;;;;;;;;;;10630642;27;20062;-77
2023/05/30 18:42:02;;;;;;;8.60;3.13;;;;;;;;;;10619951;27;20031;-77
2023/05/30 18:47:03;;;;;;;7.15;3.05;;;;;;;;;;10598107;27;20023;-78
2023/05/30 18:52:04;;;;;;;9.23;3.28;;;;;;;;;;10620659;27;20118;-78
2023/05/30 18:57:07;;;;;;;7.50;3.75;;;;;;;;;;10622389;27;20043;-77
2023/05/30 19:02:08;;;;;;;10.32;4.05;;;;;;;;;;10630721;27;20027;-76
2023/05/30 19:07:09;;;;;;;7.18;3.30;;;;;;;;;;10625217;27;20386;-77
2023/05/30 19:12:10;;;;;;;10.07;3.65;;;;;;;;;;10618816;27;20027;-77
2023/05/30 19:17:11;;;;;;;10.43;4.20;;;;;;;;;;10603160;27;20527;-77
2023/05/30 19:22:13;;;;;;;8.55;3.63;;;;;;;;;;10617450;27;20413;-77
2023/05/30 19:27:14;;;;;;;8.43;3.80;;;;;;;;;;10618701;27;20035;-79
2023/05/30 19:32:15;;;;;;;7.85;3.92;;;;;;;;;;10626268;27;20054;-76
2023/05/30 19:37:16;;;;;;;11.77;4.40;;;;;;;;;;10619439;27;20035;-77
2023/05/30 19:42:17;;;;;;;9.82;4.47;;;;;;;;;;10616693;27;20700;-78
2023/05/30 19:47:18;;;;;;;8.63;3.67;;;;;;;;;;10624349;27;20065;-77
2023/05/30 19:52:19;;;;;;;10.15;4.57;;;;;;;;;;10628257;27;20065;-77
2023/05/30 19:57:20;;;;;;;9.15;4.35;;;;;;;;;;10623116;27;20035;-78
2023/05/30 20:02:21;;;;;;;9.43;4.00;;;;;;;;;;10615865;27;20647;-77
2023/05/30 20:07:22;;;;;;;11.90;4.47;;;;;;;;;;10598197;27;20023;-78
2023/05/30 20:12:23;;;;;;;8.75;4.10;;;;;;;;;;10624332;27;20125;-79
2023/05/30 20:17:24;;;;;;;7.45;3.67;;;;;;;;;;10625265;27;20030;-77
2023/05/30 20:22:25;;;;;;;11.63;4.15;;;;;;;;;;10616214;27;20035;-78
2023/05/30 20:27:26;;;;;;;7.70;3.90;;;;;;;;;;10611869;27;20479;-78
2023/05/30 20:32:27;;;;;;;8.55;4.25;;;;;;;;;;10610795;27;20427;-77
2023/05/30 20:37:29;;;;;;;10.00;4.15;;;;;;;;;;10614748;27;20083;-78
2023/05/30 20:42:31;;;;;;;9.93;4.32;;;;;;;;;;10622486;27;20039;-77
2023/05/30 20:47:32;;;;;;;9.13;4.30;;;;;;;;;;10621417;27;20059;-77
2023/05/30 20:52:33;;;;;;;7.28;3.75;;;;;;;;;;10613853;27;20039;-78
2023/05/30 20:57:34;;;;;;;11.80;3.90;;;;;;;;;;10620693;27;20031;-77
2023/05/30 21:02:35;;;;;;;12.80;4.47;;;;;;;;;;10614024;27;20469;-79
2023/05/30 21:07:36;;;;;;;10.85;3.85;;;;;;;;;;10613190;27;20023;-77
2023/05/30 21:12:37;;;;;;;10.32;4.00;;;;;;;;;;10617552;27;20055;-77
2023/05/30 21:17:38;;;;;;;8.32;4.22;;;;;;;;;;10618631;27;20138;-78
2023/05/30 21:22:39;;;;;;;7.75;3.92;;;;;;;;;;10618834;27;20114;-78
2023/05/30 21:27:40;;;;;;;8.07;4.50;;;;;;;;;;10612943;27;20046;-77
2023/05/30 21:32:41;;;;;;;9.50;4.68;;;;;;;;;;10616819;27;20758;-77
2023/05/30 21:37:42;;;;;;;8.10;4.03;;;;;;;;;;10603151;27;20027;-77
2023/05/30 21:42:43;;;;;;;8.38;4.10;;;;;;;;;;10627197;27;20031;-79
2023/05/30 21:47:44;;;;;;;9.77;4.43;;;;;;;;;;10627181;27;20732;-77
2023/05/30 21:52:45;;;;;;;11.32;4.53;;;;;;;;;;10608065;27;20054;-78
2023/05/30 21:57:46;;;;;;;11.45;4.10;;;;;;;;;;10625944;27;20023;-79
2023/05/30 22:02:47;;;;;;;7.90;4.10;;;;;;;;;;10627591;27;20023;-76
2023/05/30 22:07:48;;;;;;;8.00;4.27;;;;;;;;;;10630942;27;20034;-77
2023/05/30 22:12:49;;;;;;;9.60;3.92;;;;;;;;;;10625832;27;20576;-78
2023/05/30 22:17:50;;;;;;;10.25;4.00;;;;;;;;;;10625992;27;20031;-77
2023/05/30 22:22:51;;;;;;;10.63;4.53;;;;;;;;;;10626729;27;20034;-77
2023/05/30 22:27:53;;;;;;;6.75;3.78;;;;;;;;;;10625673;27;20581;-78
2023/05/30 22:32:54;;;;;;;9.73;4.82;;;;;;;;;;10626089;27;20142;-78
2023/05/30 22:37:55;;;;;;;8.47;3.97;;;;;;;;;;10626758;27;20234;-80
2023/05/30 22:42:56;;;;;;;11.53;4.70;;;;;;;;;;10625475;27;20044;-77
2023/05/30 22:47:57;;;;;;;6.85;3.72;;;;;;;;;;10621421;27;20573;-76
2023/05/30 22:52:58;;;;;;;12.47;4.33;;;;;;;;;;10633014;27;20038;-78
2023/05/30 22:57:59;;;;;;;10.80;4.20;;;;;;;;;;10611061;27;20027;-78
2023/05/30 23:03:00;;;;;;;10.32;4.45;;;;;;;;;;10618246;27;20475;-76
2023/05/30 23:08:01;;;;;;;7.97;4.67;;;;;;;;;;10618728;27;20034;-78
2023/05/30 23:13:02;;;;;;;9.10;3.90;;;;;;;;;;10617599;27;20525;-78
2023/05/30 23:18:03;;;;;;;12.40;4.30;;;;;;;;;;10623923;27;20043;-79
2023/05/30 23:23:08;;;;;;;9.10;3.60;;;;;;;;;;10639983;27;20031;-77
2023/05/30 23:28:09;;;;;;;8.70;4.10;;;;;;;;;;10617527;27;20470;-78
2023/05/30 23:33:09;;;;;;;9.73;4.93;;;;;;;;;;10617547;27;20050;-77
2023/05/30 23:38:11;;;;;;;10.50;5.17;;;;;;;;;;10600252;27;20032;-77
2023/05/30 23:43:12;;;;;;;8.40;4.23;;;;;;;;;;10617008;27;20102;-77
2023/05/30 23:48:13;;;;;;;10.07;3.97;;;;;;;;;;10616675;27;20041;-79
2023/05/30 23:53:13;;;;;;;9.80;4.07;;;;;;;;;;10616723;27;20627;-80
2023/05/30 23:58:14;;;;;;;9.23;4.20;;;;;;;;;;10615816;27;20041;-78
